Time,TemperatureF,DewpointF,PressureIn,WindDirection,WindDirectionDegrees,WindSpeedMPH,WindSpeedGustMPH,Humidity,HourlyPrecipIn,Conditions,Clouds,dailyrainin,SoftwareType,DateUTC
2013-03-07 00:32:00,20.0,-99.9,-100.00,West,280,1.0,-999.0,-999,0.00,,,0.00,,2013-03-07 06:32:00,
2013-03-07 00:42:00,20.0,-99.9,-100.00,West,280,1.0,-999.0,-999,0.00,,,0.00,,2013-03-07 06:42:00,
2013-03-07 00:52:00,20.0,-99.9,-100.00,West,280,1.0,-999.0,-999,0.00,,,0.00,,2013-03-07 06:52:00,
2013-03-07 01:02:00,20.0,-99.9,-100.00,NW,311,1.0,-999.0,-999,0.00,,,0.00,,2013-03-07 07:02:00,
2013-03-07 01:11:00,20.0,-99.9,-100.00,NW,311,1.0,-999.0,-999,0.00,,,0.00,,2013-03-07 07:11:00,
2013-03-07 01:22:00,20.0,-99.9,-100.00,NW,311,1.0,-999.0,-999,0.00,,,0.00,,2013-03-07 07:22:00,
2013-03-07 01:32:00,22.0,-99.9,-100.00,East,92,1.0,-999.0,-999,0.00,,,0.00,,2013-03-07 07:32:00,
2013-03-07 01:43:00,22.0,-99.9,-100.00,East,92,1.0,-999.0,-999,0.00,,,0.00,,2013-03-07 07:43:00,
2013-03-07 01:53:00,22.0,-99.9,-100.00,East,92,1.0,-999.0,-999,0.00,,,0.00,,2013-03-07 07:53:00,
2013-03-07 02:03:00,20.0,-99.9,-100.00,WSW,238,1.0,-999.0,-999,0.00,,,0.00,,2013-03-07 08:03:00,
2013-03-07 02:12:00,20.0,-99.9,-100.00,WSW,238,1.0,-999.0,-999,0.00,,,0.00,,2013-03-07 08:12:00,
2013-03-07 02:23:00,20.0,-99.9,-100.00,WSW,238,1.0,-999.0,-999,0.00,,,0.00,,2013-03-07 08:23:00,
2013-03-07 02:34:00,20.0,-99.9,-100.00,West,265,1.0,-999.0,-999,0.00,,,0.00,,2013-03-07 08:34:00,
2013-03-07 02:45:00,20.0,-99.9,-100.00,West,265,1.0,-999.0,-999,0.00,,,0.00,,2013-03-07 08:45:00,
2013-03-07 02:55:00,20.0,-99.9,-100.00,West,265,1.0,-999.0,-999,0.00,,,0.00,,2013-03-07 08:55:00,
2013-03-07 03:04:00,20.0,-99.9,-100.00,WNW,298,2.0,-999.0,-999,0.00,,,0.00,,2013-03-07 09:04:00,
2013-03-07 03:14:00,20.0,-99.9,-100.00,WNW,298,2.0,-999.0,-999,0.00,,,0.00,,2013-03-07 09:14:00,
2013-03-07 03:24:00,20.0,-99.9,-100.00,WNW,298,2.0,-999.0,-999,0.00,,,0.00,,2013-03-07 09:24:00,
2013-03-07 03:30:00,24.0,-99.9,-100.00,NE,40,4.0,-999.0,-999,0.00,,,0.00,,2013-03-07 09:30:00,
2013-03-07 03:43:00,21.0,-99.9,-100.00,NW,304,2.0,-999.0,-999,0.00,,,0.00,,2013-03-07 09:43:00,
2013-03-07 03:54:00,21.0,-99.9,-100.00,NW,304,2.0,-999.0,-999,0.00,,,0.00,,2013-03-07 09:54:00,
2013-03-07 04:04:00,24.0,-99.9,-100.00,NE,40,4.0,-999.0,-999,0.00,,,0.00,,2013-03-07 10:04:00,
2013-03-07 04:14:00,24.0,-99.9,-100.00,NE,40,4.0,-999.0,-999,0.00,,,0.00,,2013-03-07 10:14:00,
2013-03-07 04:24:00,24.0,-99.9,-100.00,NE,40,4.0,-999.0,-999,0.00,,,0.00,,2013-03-07 10:24:00,
2013-03-07 05:04:00,23.0,-99.9,-100.00,ENE,71,4.0,-999.0,-999,0.00,,,0.00,,2013-03-07 11:04:00,
2013-03-07 05:12:00,23.0,-99.9,-100.00,ENE,71,4.0,-999.0,-999,0.00,,,0.00,,2013-03-07 11:12:00,
2013-03-07 05:24:00,23.0,-99.9,-100.00,ENE,71,4.0,-999.0,-999,0.00,,,0.00,,2013-03-07 11:24:00,
2013-03-07 05:34:00,23.0,-99.9,-100.00,East,82,4.0,-999.0,-999,0.00,,,0.00,,2013-03-07 11:34:00,
2013-03-07 05:44:00,23.0,-99.9,-100.00,East,82,4.0,-999.0,-999,0.00,,,0.00,,2013-03-07 11:44:00,
2013-03-07 05:55:00,23.0,-99.9,-100.00,East,82,4.0,-999.0,-999,0.00,,,0.00,,2013-03-07 11:55:00,
2013-03-07 06:04:00,23.0,-99.9,-100.00,East,85,6.0,-999.0,-999,0.00,,,0.00,,2013-03-07 12:04:00,
2013-03-07 06:13:00,23.0,-99.9,-100.00,East,85,6.0,-999.0,-999,0.00,,,0.00,,2013-03-07 12:13:00,
2013-03-07 06:23:00,23.0,-99.9,-100.00,East,85,6.0,-999.0,-999,0.00,,,0.00,,2013-03-07 12:23:00,
2013-03-07 06:34:00,24.0,-99.9,-100.00,East,85,4.0,-999.0,-999,0.00,,,0.00,,2013-03-07 12:34:00,
2013-03-07 06:43:00,24.0,-99.9,-100.00,East,85,4.0,-999.0,-999,0.00,,,0.00,,2013-03-07 12:43:00,
2013-03-07 06:53:00,24.0,-99.9,-100.00,East,85,4.0,-999.0,-999,0.00,,,0.00,,2013-03-07 12:53:00,
2013-03-07 08:03:00,-58.0,-99.9,-100.00,North,-999,5.0,-999.0,-999,-99.99,,,0.00,,2013-03-07 14:03:00,
2013-03-07 08:13:00,-58.0,-99.9,-100.00,North,-999,5.0,-999.0,-999,-99.99,,,0.00,,2013-03-07 14:13:00,
2013-03-07 08:23:00,-58.0,-99.9,-100.00,North,-999,5.0,-999.0,-999,-99.99,,,0.00,,2013-03-07 14:23:00,
2013-03-07 08:34:00,-999.0,-99.9,-100.00,North,-999,4.0,-999.0,-999,0.00,,,0.00,,2013-03-07 14:34:00,
2013-03-07 08:43:00,-999.0,-99.9,-100.00,North,-999,4.0,-999.0,-999,0.00,,,0.00,,2013-03-07 14:43:00,
2013-03-07 08:54:00,-999.0,-99.9,-100.00,North,-999,4.0,-999.0,-999,0.00,,,0.00,,2013-03-07 14:54:00,
2013-03-07 09:00:00,25.0,-99.9,-100.00,East,94,6.0,-999.0,-999,0.00,,,0.00,,2013-03-07 15:00:00,
2013-03-07 09:33:00,25.0,-99.9,-100.00,East,94,6.0,-999.0,-999,0.00,,,0.00,,2013-03-07 15:33:00,
2013-03-07 09:43:00,25.0,-99.9,-100.00,East,94,6.0,-999.0,-999,0.00,,,0.00,,2013-03-07 15:43:00,
2013-03-07 09:53:00,25.0,-99.9,-100.00,East,94,6.0,-999.0,-999,0.00,,,0.00,,2013-03-07 15:53:00,
2013-03-07 10:33:00,27.0,-99.9,-100.00,ENE,61,5.0,-999.0,-999,0.00,,,0.00,,2013-03-07 16:33:00,
2013-03-07 10:43:00,27.0,-99.9,-100.00,ENE,61,5.0,-999.0,-999,0.00,,,0.00,,2013-03-07 16:43:00,
2013-03-07 10:53:00,27.0,-99.9,-100.00,ENE,61,5.0,-999.0,-999,0.00,,,0.00,,2013-03-07 16:53:00,
2013-03-07 11:03:00,28.0,-99.9,-100.00,East,87,5.0,-999.0,-999,0.00,,,0.00,,2013-03-07 17:03:00,
2013-03-07 11:13:00,28.0,-99.9,-100.00,East,87,5.0,-999.0,-999,0.00,,,0.00,,2013-03-07 17:13:00,
2013-03-07 11:23:00,28.0,-99.9,-100.00,East,87,5.0,-999.0,-999,0.00,,,0.00,,2013-03-07 17:23:00,
2013-03-07 11:34:00,29.0,-99.9,-100.00,East,90,5.0,-999.0,-999,0.00,,,0.00,,2013-03-07 17:34:00,
2013-03-07 11:44:00,29.0,-99.9,-100.00,East,90,5.0,-999.0,-999,0.00,,,0.00,,2013-03-07 17:44:00,
2013-03-07 11:55:00,29.0,-99.9,-100.00,East,90,5.0,-999.0,-999,0.00,,,0.00,,2013-03-07 17:55:00,
2013-03-07 12:04:00,29.0,-99.9,-100.00,East,86,6.0,-999.0,-999,0.00,,,0.00,,2013-03-07 18:04:00,
2013-03-07 12:13:00,29.0,-99.9,-100.00,East,86,6.0,-999.0,-999,0.00,,,0.00,,2013-03-07 18:13:00,
2013-03-07 12:22:00,29.0,-99.9,-100.00,East,86,6.0,-999.0,-999,0.00,,,0.00,,2013-03-07 18:22:00,
2013-03-07 12:33:00,31.0,-99.9,-100.00,East,91,5.0,-999.0,-999,0.00,,,0.00,,2013-03-07 18:33:00,
2013-03-07 12:43:00,31.0,-99.9,-100.00,East,91,5.0,-999.0,-999,0.00,,,0.00,,2013-03-07 18:43:00,
2013-03-07 12:53:00,31.0,-99.9,-100.00,East,91,5.0,-999.0,-999,0.00,,,0.00,,2013-03-07 18:53:00,
2013-03-07 13:00:00,32.0,-99.9,-100.00,East,97,6.0,-999.0,-999,0.00,,,0.00,,2013-03-07 19:00:00,
2013-03-07 13:04:00,33.0,-99.9,-100.00,SE,135,3.0,-999.0,-999,0.00,,,0.00,,2013-03-07 19:04:00,
2013-03-07 13:13:00,33.0,-99.9,-100.00,SE,135,3.0,-999.0,-999,0.00,,,0.00,,2013-03-07 19:13:00,
2013-03-07 13:24:00,33.0,-99.9,-100.00,SE,135,3.0,-999.0,-999,0.00,,,0.00,,2013-03-07 19:24:00,
2013-03-07 13:35:00,32.0,-99.9,-100.00,East,97,6.0,-999.0,-999,0.00,,,0.00,,2013-03-07 19:35:00,
2013-03-07 13:44:00,32.0,-99.9,-100.00,East,97,6.0,-999.0,-999,0.00,,,0.00,,2013-03-07 19:44:00,
2013-03-07 13:53:00,32.0,-99.9,-100.00,East,97,6.0,-999.0,-999,0.00,,,0.00,,2013-03-07 19:53:00,
2013-03-07 14:14:00,33.0,-99.9,-100.00,ENE,69,7.0,-999.0,-999,0.00,,,0.00,,2013-03-07 20:14:00,
2013-03-07 14:23:00,33.0,-99.9,-100.00,ENE,69,7.0,-999.0,-999,0.00,,,0.00,,2013-03-07 20:23:00,
2013-03-07 14:34:00,33.0,-99.9,-100.00,ENE,68,7.0,-999.0,-999,0.00,,,0.00,,2013-03-07 20:34:00,
2013-03-07 14:44:00,33.0,-99.9,-100.00,ENE,68,7.0,-999.0,-999,0.00,,,0.00,,2013-03-07 20:44:00,
2013-03-07 14:54:00,33.0,-99.9,-100.00,ENE,68,7.0,-999.0,-999,0.00,,,0.00,,2013-03-07 20:54:00,
2013-03-07 15:03:00,34.0,-99.9,-100.00,East,89,8.0,-999.0,-999,0.00,,,0.00,,2013-03-07 21:03:00,
2013-03-07 15:13:00,34.0,-99.9,-100.00,East,89,8.0,-999.0,-999,0.00,,,0.00,,2013-03-07 21:13:00,
2013-03-07 15:23:00,34.0,-99.9,-100.00,East,89,8.0,-999.0,-999,0.00,,,0.00,,2013-03-07 21:23:00,
2013-03-07 15:33:00,34.0,-99.9,-100.00,East,82,7.0,-999.0,-999,0.00,,,0.00,,2013-03-07 21:33:00,
2013-03-07 15:43:00,34.0,-99.9,-100.00,East,82,7.0,-999.0,-999,0.00,,,0.00,,2013-03-07 21:43:00,
2013-03-07 15:53:00,34.0,-99.9,-100.00,East,82,7.0,-999.0,-999,0.00,,,0.00,,2013-03-07 21:53:00,
2013-03-07 16:02:00,35.0,-99.9,-100.00,ENE,76,6.0,-999.0,-999,0.00,,,0.00,,2013-03-07 22:02:00,
2013-03-07 16:12:00,35.0,-99.9,-100.00,ENE,76,6.0,-999.0,-999,0.00,,,0.00,,2013-03-07 22:12:00,
2013-03-07 16:23:00,35.0,-99.9,-100.00,ENE,76,6.0,-999.0,-999,0.00,,,0.00,,2013-03-07 22:23:00,
2013-03-07 16:33:00,36.0,-99.9,-100.00,East,92,6.0,-999.0,-999,0.00,,,0.00,,2013-03-07 22:33:00,
2013-03-07 16:44:00,36.0,-99.9,-100.00,East,92,6.0,-999.0,-999,0.00,,,0.00,,2013-03-07 22:44:00,
2013-03-07 16:55:00,36.0,-99.9,-100.00,East,92,6.0,-999.0,-999,0.00,,,0.00,,2013-03-07 22:55:00,
2013-03-07 17:04:00,35.0,-99.9,-100.00,ENE,65,7.0,-999.0,-999,0.00,,,0.00,,2013-03-07 23:04:00,
2013-03-07 17:13:00,35.0,-99.9,-100.00,ENE,65,7.0,-999.0,-999,0.00,,,0.00,,2013-03-07 23:13:00,
2013-03-07 17:23:00,35.0,-99.9,-100.00,ENE,65,7.0,-999.0,-999,0.00,,,0.00,,2013-03-07 23:23:00,
2013-03-07 17:35:00,35.0,-99.9,-100.00,ENE,68,6.0,-999.0,-999,0.00,,,0.00,,2013-03-07 23:35:00,
2013-03-07 17:44:00,35.0,-99.9,-100.00,ENE,68,6.0,-999.0,-999,0.00,,,0.00,,2013-03-07 23:44:00,
2013-03-07 17:54:00,35.0,-99.9,-100.00,ENE,68,6.0,-999.0,-999,0.00,,,0.00,,2013-03-07 23:54:00,
2013-03-07 18:05:00,35.0,-99.9,-100.00,ENE,76,5.0,-999.0,-999,0.00,,,0.00,,2013-03-08 00:05:00,
2013-03-07 18:13:00,35.0,-99.9,-100.00,ENE,76,5.0,-999.0,-999,0.00,,,0.00,,2013-03-08 00:13:00,
2013-03-07 18:23:00,35.0,-99.9,-100.00,ENE,76,5.0,-999.0,-999,0.00,,,0.00,,2013-03-08 00:23:00,
2013-03-07 18:35:00,34.0,-99.9,-100.00,ENE,73,5.0,-999.0,-999,0.00,,,0.00,,2013-03-08 00:35:00,
2013-03-07 18:44:00,34.0,-99.9,-100.00,ENE,73,5.0,-999.0,-999,0.00,,,0.00,,2013-03-08 00:44:00,
2013-03-07 18:54:00,34.0,-99.9,-100.00,ENE,73,5.0,-999.0,-999,0.00,,,0.00,,2013-03-08 00:54:00,
2013-03-07 19:02:00,35.0,-99.9,-100.00,ENE,65,7.0,-999.0,-999,0.00,,,0.00,,2013-03-08 01:02:00,
2013-03-07 19:12:00,35.0,-99.9,-100.00,ENE,65,7.0,-999.0,-999,0.00,,,0.00,,2013-03-08 01:12:00,
2013-03-07 19:22:00,35.0,-99.9,-100.00,ENE,65,7.0,-999.0,-999,0.00,,,0.00,,2013-03-08 01:22:00,
2013-03-07 19:30:00,33.0,-99.9,-100.00,NE,47,2.0,-999.0,-999,0.00,,,0.00,,2013-03-08 01:30:00,
2013-03-07 19:33:00,33.0,-99.9,-100.00,ENE,77,5.0,-999.0,-999,0.00,,,0.00,,2013-03-08 01:33:00,
2013-03-07 19:42:00,33.0,-99.9,-100.00,ENE,77,5.0,-999.0,-999,0.00,,,0.00,,2013-03-08 01:42:00,
2013-03-07 19:52:00,33.0,-99.9,-100.00,ENE,77,5.0,-999.0,-999,0.00,,,0.00,,2013-03-08 01:52:00,
2013-03-07 20:02:00,33.0,-99.9,-100.00,NE,47,2.0,-999.0,-999,0.00,,,0.00,,2013-03-08 02:02:00,
2013-03-07 20:12:00,33.0,-99.9,-100.00,NE,47,2.0,-999.0,-999,0.00,,,0.00,,2013-03-08 02:12:00,
2013-03-07 20:22:00,33.0,-99.9,-100.00,NE,47,2.0,-999.0,-999,0.00,,,0.00,,2013-03-08 02:22:00,
2013-03-07 20:42:00,33.0,-99.9,-100.00,ENE,70,2.0,-999.0,-999,0.00,,,0.00,,2013-03-08 02:42:00,
2013-03-07 20:53:00,33.0,-99.9,-100.00,ENE,70,2.0,-999.0,-999,0.00,,,0.00,,2013-03-08 02:53:00,
2013-03-07 21:02:00,33.0,-99.9,-100.00,ENE,62,4.0,-999.0,-999,0.00,,,0.00,,2013-03-08 03:02:00,
2013-03-07 21:12:00,33.0,-99.9,-100.00,ENE,62,4.0,-999.0,-999,0.00,,,0.00,,2013-03-08 03:12:00,
2013-03-07 21:23:00,33.0,-99.9,-100.00,ENE,62,4.0,-999.0,-999,0.00,,,0.00,,2013-03-08 03:23:00,
2013-03-07 21:33:00,33.0,-99.9,-100.00,ENE,63,7.0,-999.0,-999,0.00,,,-99.99,,2013-03-08 03:33:00,
2013-03-07 21:43:00,33.0,-99.9,-100.00,ENE,63,7.0,-999.0,-999,0.00,,,-99.99,,2013-03-08 03:43:00,
2013-03-07 21:53:00,33.0,-99.9,-100.00,ENE,63,7.0,-999.0,-999,0.00,,,-99.99,,2013-03-08 03:53:00,
2013-03-07 22:02:00,32.0,-99.9,-100.00,ESE,106,2.0,-999.0,-999,0.00,,,-99.99,,2013-03-08 04:02:00,
2013-03-07 22:12:00,32.0,-99.9,-100.00,ESE,106,2.0,-999.0,-999,0.00,,,-99.99,,2013-03-08 04:12:00,
2013-03-07 22:22:00,32.0,-99.9,-100.00,ESE,106,2.0,-999.0,-999,0.00,,,-99.99,,2013-03-08 04:22:00,
2013-03-07 22:32:00,32.0,-99.9,-100.00,East,100,6.0,-999.0,-999,0.00,,,0.00,,2013-03-08 04:32:00,
2013-03-07 22:43:00,32.0,-99.9,-100.00,East,100,6.0,-999.0,-999,0.00,,,0.00,,2013-03-08 04:43:00,
2013-03-07 22:52:00,32.0,-99.9,-100.00,East,100,6.0,-999.0,-999,0.00,,,0.00,,2013-03-08 04:52:00,
2013-03-07 23:02:00,32.0,-99.9,-100.00,East,91,4.0,-999.0,-999,0.00,,,0.00,,2013-03-08 05:02:00,
2013-03-07 23:12:00,32.0,-99.9,-100.00,East,91,4.0,-999.0,-999,0.00,,,0.00,,2013-03-08 05:12:00,
2013-03-07 23:22:00,32.0,-99.9,-100.00,East,91,4.0,-999.0,-999,0.00,,,0.00,,2013-03-08 05:22:00,
2013-03-07 23:33:00,33.0,-99.9,-100.00,ESE,108,3.0,-999.0,-999,0.00,,,0.00,,2013-03-08 05:33:00,
2013-03-07 23:43:00,33.0,-99.9,-100.00,ESE,108,3.0,-999.0,-999,0.00,,,0.00,,2013-03-08 05:43:00,
2013-03-07 23:52:00,33.0,-99.9,-100.00,ESE,108,3.0,-999.0,-999,0.00,,,0.00,,2013-03-08 05:52:00,